• Join FlightAware (Why Join?)
  • Login
  • US Flag 
05:50PM EDT


 

Airport Tracker/Info


-or-


 

Live Flight TrackerFlight Track Log ✈ CTL61 ✈ 15-Apr-2013 ✈ KBLF - KCRW

Flight Track Log - Related Links

Times and Time Zones

All times are in EDT time to prevent confusion due to time zone crossing. See the CTL61 flight status page for this flight to view local times or setup timezone preferences in your user account.

Time Position Orientation Groundspeed Altitude Reporting Facility
EDT Latitude Longitude Course Direction KTS MPH feet Rate Location/Type
11:13PM 37.2931 -81.2442 350° North 143 165 4,000  Level Indianapolis Center
11:14PM 37.3344 -81.2536 350° North 139 160 5,200 1,020 Climbing Indianapolis Center
11:15PM 37.3714 -81.2650 346° North 140 161 6,200 780 Climbing Indianapolis Center
11:16PM 37.4044 -81.2742 348° North 129 148 6,900 300 Climbing Indianapolis Center
11:17PM 37.4425 -81.2875 344° North 136 157 6,900  Level Indianapolis Center
11:18PM 37.4917 -81.3017 347° North 171 197 6,900  Level Indianapolis Center
11:19PM 37.5439 -81.3172 347° North 166 191 6,900 -60 Level Indianapolis Center
11:20PM 37.5889 -81.3311 346° North 168 193 6,800 -240 Descending Indianapolis Center
11:21PM 37.6350 -81.3447 347° North 172 198 6,500 -360 Descending Indianapolis Center
11:22PM 37.6825 -81.3628 343° North 180 207 6,100 -300 Descending Indianapolis Center
11:23PM 37.7319 -81.3778 347° North 187 215 5,900 -300 Descending Indianapolis Center
11:24PM 37.7864 -81.3958 345° North 176 203 5,500 -360 Descending Indianapolis Center
11:25PM 37.8386 -81.4144 344° North 185 213 5,200 -300 Descending Indianapolis Center
11:26PM 37.8889 -81.4311 345° North 185 213 4,900 -240 Descending Indianapolis Center
11:27PM 37.9386 -81.4464 346° North 184 212 4,800 -60 Descending Indianapolis Center
11:28PM 37.9864 -81.4625 345° North 179 206 4,800  Level Indianapolis Center
11:29PM 38.0344 -81.4792 345° North 177 204 4,800 -180 Level Indianapolis Center
11:30PM 38.0833 -81.4953 345° North 182 209 4,500 -360 Descending Indianapolis Center
11:31PM 38.1361 -81.5133 345° North 192 221 4,100 -540 Descending Indianapolis Center
11:32PM 38.1889 -81.5314 345° North 194 223 3,500 -600 Descending Indianapolis Center
11:33PM 38.2453 -81.5494 346° North 202 232 2,900 -600 Descending Indianapolis Center
11:34PM 38.3006 -81.5731 341° North 207 238 2,400 -360 Descending Indianapolis Center
11:35PM 38.3483 -81.5742 359° North 189 217 2,200 -420 Descending Indianapolis Center
11:36PM 38.3869 -81.5464 29° Northeast 151 174 1,600 -480 Descending Indianapolis Center
11:37PM 38.3925 -81.5722 285° West 131 151 1,300 -300 Descending Indianapolis Center
11:39PM 38.3667 -81.5833 North  Level FlightAware Approximate